Arches, Utah
Current Conditions -  °F | °C
As of 4:53 PM on Monday 22 Dec 2014 (Local Time) from KCNY Reporting Station
Clear Clear  
Wind Chill: 38°   Ceiling: Unl
Heat Index: 47°   Visibility: 10mi
Dew Point: 22°   Wind: 29mph
Humidity: 37%   Direction: 300°WNW
Pressure: 29.82"   Gusts: 36mph
Location:  38.6903°N, 109.256°W
Report Text: KCNY 222353Z AUTO 30025G31KT 10SM CLR 08/M06 A2982 RMK AO2 PK WND 30037/2325 SLP096 T00831056 10117 20039 53005
Loading
Personal Weather Stations






























Interactive Weather Map New forecast layout! Learn more

10-Day Weather Forecast

Advertisements
Track Severe Weather on mobile